sensor_id;sensor_type;location;lat;lon;timestamp;temperature;humidity
28524;DHT22;15734;50.904;6.922;2023-03-23T00:02:27;13.50;99.90
28524;DHT22;15734;50.904;6.922;2023-03-23T00:04:53;13.60;99.90
28524;DHT22;15734;50.904;6.922;2023-03-23T00:07:20;13.50;99.90
28524;DHT22;15734;50.904;6.922;2023-03-23T00:09:47;13.50;99.90
28524;DHT22;15734;50.904;6.922;2023-03-23T00:12:12;13.50;99.90
28524;DHT22;15734;50.904;6.922;2023-03-23T00:14:40;13.50;99.90
28524;DHT22;15734;50.904;6.922;2023-03-23T00:17:07;13.50;99.90
28524;DHT22;15734;50.904;6.922;2023-03-23T00:19:35;13.50;99.90
28524;DHT22;15734;50.904;6.922;2023-03-23T00:22:11;13.50;99.90
28524;DHT22;15734;50.904;6.922;2023-03-23T00:24:37;13.40;99.90
28524;DHT22;15734;50.904;6.922;2023-03-23T00:27:02;13.50;99.90
28524;DHT22;15734;50.904;6.922;2023-03-23T00:29:28;13.50;99.90
28524;DHT22;15734;50.904;6.922;2023-03-23T00:31:53;13.50;99.90
28524;DHT22;15734;50.904;6.922;2023-03-23T00:34:20;13.50;99.90
28524;DHT22;15734;50.904;6.922;2023-03-23T00:36:46;13.50;99.90
28524;DHT22;15734;50.904;6.922;2023-03-23T00:39:12;13.50;99.90
28524;DHT22;15734;50.904;6.922;2023-03-23T00:41:38;13.50;99.90
28524;DHT22;15734;50.904;6.922;2023-03-23T00:44:03;13.40;99.90
28524;DHT22;15734;50.904;6.922;2023-03-23T00:46:29;13.40;99.90
28524;DHT22;15734;50.904;6.922;2023-03-23T00:48:55;13.40;99.90
28524;DHT22;15734;50.904;6.922;2023-03-23T00:51:22;13.40;99.90
28524;DHT22;15734;50.904;6.922;2023-03-23T00:53:47;13.40;99.90
28524;DHT22;15734;50.904;6.922;2023-03-23T00:56:13;13.40;99.90
28524;DHT22;15734;50.904;6.922;2023-03-23T00:58:39;13.40;99.90
28524;DHT22;15734;50.904;6.922;2023-03-23T01:01:05;13.40;99.90
28524;DHT22;15734;50.904;6.922;2023-03-23T01:03:30;13.40;99.90
28524;DHT22;15734;50.904;6.922;2023-03-23T01:05:56;13.30;99.90
28524;DHT22;15734;50.904;6.922;2023-03-23T01:08:22;13.30;99.90
28524;DHT22;15734;50.904;6.922;2023-03-23T01:10:48;13.30;99.90
28524;DHT22;15734;50.904;6.922;2023-03-23T01:13:14;13.30;99.90
28524;DHT22;15734;50.904;6.922;2023-03-23T01:15:40;13.30;99.90
28524;DHT22;15734;50.904;6.922;2023-03-23T01:18:07;13.30;99.90
28524;DHT22;15734;50.904;6.922;2023-03-23T01:20:32;13.30;99.90
28524;DHT22;15734;50.904;6.922;2023-03-23T01:22:59;13.30;99.90
28524;DHT22;15734;50.904;6.922;2023-03-23T01:25:29;13.30;99.90
28524;DHT22;15734;50.904;6.922;2023-03-23T01:27:55;13.40;99.90
28524;DHT22;15734;50.904;6.922;2023-03-23T01:30:21;13.40;99.90
28524;DHT22;15734;50.904;6.922;2023-03-23T01:32:46;13.40;99.90
28524;DHT22;15734;50.904;6.922;2023-03-23T01:35:12;13.40;99.90
28524;DHT22;15734;50.904;6.922;2023-03-23T01:37:38;13.40;99.90
28524;DHT22;15734;50.904;6.922;2023-03-23T01:40:04;13.40;99.90
28524;DHT22;15734;50.904;6.922;2023-03-23T01:42:31;13.40;99.90
28524;DHT22;15734;50.904;6.922;2023-03-23T01:45:21;13.40;99.90
28524;DHT22;15734;50.904;6.922;2023-03-23T01:47:48;13.30;99.90
28524;DHT22;15734;50.904;6.922;2023-03-23T01:50:15;13.20;99.90
28524;DHT22;15734;50.904;6.922;2023-03-23T01:52:40;13.20;99.90
28524;DHT22;15734;50.904;6.922;2023-03-23T01:55:06;13.10;99.90
28524;DHT22;15734;50.904;6.922;2023-03-23T01:57:32;13.00;99.90
28524;DHT22;15734;50.904;6.922;2023-03-23T01:59:59;12.90;99.90
28524;DHT22;15734;50.904;6.922;2023-03-23T02:02:26;12.90;99.90
28524;DHT22;15734;50.904;6.922;2023-03-23T02:04:52;12.80;99.90
28524;DHT22;15734;50.904;6.922;2023-03-23T02:07:20;12.80;99.90
28524;DHT22;15734;50.904;6.922;2023-03-23T02:09:46;12.70;99.90
28524;DHT22;15734;50.904;6.922;2023-03-23T02:12:12;12.70;99.90
28524;DHT22;15734;50.904;6.922;2023-03-23T02:14:37;12.70;99.90
28524;DHT22;15734;50.904;6.922;2023-03-23T02:19:40;12.60;99.90
28524;DHT22;15734;50.904;6.922;2023-03-23T02:24:59;12.70;99.90
28524;DHT22;15734;50.904;6.922;2023-03-23T02:35:37;12.40;99.90
28524;DHT22;15734;50.904;6.922;2023-03-23T02:38:08;12.40;99.90
28524;DHT22;15734;50.904;6.922;2023-03-23T02:40:39;12.40;99.90
28524;DHT22;15734;50.904;6.922;2023-03-23T02:43:06;12.40;99.90
28524;DHT22;15734;50.904;6.922;2023-03-23T02:45:32;12.40;99.90
28524;DHT22;15734;50.904;6.922;2023-03-23T02:47:59;12.40;99.90
28524;DHT22;15734;50.904;6.922;2023-03-23T02:50:25;12.40;99.90
28524;DHT22;15734;50.904;6.922;2023-03-23T02:52:53;12.40;99.90
28524;DHT22;15734;50.904;6.922;2023-03-23T02:55:19;12.50;99.90
28524;DHT22;15734;50.904;6.922;2023-03-23T02:57:48;12.50;99.90
28524;DHT22;15734;50.904;6.922;2023-03-23T03:00:15;12.50;99.90
28524;DHT22;15734;50.904;6.922;2023-03-23T03:02:42;12.50;99.90
28524;DHT22;15734;50.904;6.922;2023-03-23T03:07:58;12.50;99.90
28524;DHT22;15734;50.904;6.922;2023-03-23T03:15:25;12.60;99.90
28524;DHT22;15734;50.904;6.922;2023-03-23T03:20:37;12.50;99.90
28524;DHT22;15734;50.904;6.922;2023-03-23T03:23:05;12.60;99.90
28524;DHT22;15734;50.904;6.922;2023-03-23T03:25:32;12.50;99.90
28524;DHT22;15734;50.904;6.922;2023-03-23T03:27:58;12.60;99.90
28524;DHT22;15734;50.904;6.922;2023-03-23T03:30:25;12.60;99.90
28524;DHT22;15734;50.904;6.922;2023-03-23T03:32:52;12.60;99.90
28524;DHT22;15734;50.904;6.922;2023-03-23T03:35:19;12.60;99.90
28524;DHT22;15734;50.904;6.922;2023-03-23T03:37:45;12.50;99.90
28524;DHT22;15734;50.904;6.922;2023-03-23T03:40:13;12.50;99.90
28524;DHT22;15734;50.904;6.922;2023-03-23T03:42:39;12.50;99.90
28524;DHT22;15734;50.904;6.922;2023-03-23T03:45:06;12.40;99.90
28524;DHT22;15734;50.904;6.922;2023-03-23T03:47:32;12.40;99.90
28524;DHT22;15734;50.904;6.922;2023-03-23T03:49:58;12.40;99.90
28524;DHT22;15734;50.904;6.922;2023-03-23T03:52:23;12.40;99.90
28524;DHT22;15734;50.904;6.922;2023-03-23T03:54:49;12.40;99.90
28524;DHT22;15734;50.904;6.922;2023-03-23T03:57:14;12.40;99.90
28524;DHT22;15734;50.904;6.922;2023-03-23T03:59:40;12.40;99.90
28524;DHT22;15734;50.904;6.922;2023-03-23T04:02:06;12.40;99.90
28524;DHT22;15734;50.904;6.922;2023-03-23T04:04:31;12.40;99.90
28524;DHT22;15734;50.904;6.922;2023-03-23T04:06:57;12.40;99.90
28524;DHT22;15734;50.904;6.922;2023-03-23T04:09:22;12.40;99.90
28524;DHT22;15734;50.904;6.922;2023-03-23T04:11:48;12.40;99.90
28524;DHT22;15734;50.904;6.922;2023-03-23T04:14:13;12.40;99.90
28524;DHT22;15734;50.904;6.922;2023-03-23T04:16:39;12.40;99.90
28524;DHT22;15734;50.904;6.922;2023-03-23T04:19:05;12.40;99.90
28524;DHT22;15734;50.904;6.922;2023-03-23T04:21:31;12.40;99.90
28524;DHT22;15734;50.904;6.922;2023-03-23T04:23:56;12.40;99.90
28524;DHT22;15734;50.904;6.922;2023-03-23T04:26:25;12.30;99.90
28524;DHT22;15734;50.904;6.922;2023-03-23T04:28:51;12.40;99.90
28524;DHT22;15734;50.904;6.922;2023-03-23T04:31:17;12.40;99.90
28524;DHT22;15734;50.904;6.922;2023-03-23T04:33:42;12.40;99.90
28524;DHT22;15734;50.904;6.922;2023-03-23T04:36:08;12.50;99.90
28524;DHT22;15734;50.904;6.922;2023-03-23T04:38:33;12.40;99.90
28524;DHT22;15734;50.904;6.922;2023-03-23T04:40:59;12.40;99.90
28524;DHT22;15734;50.904;6.922;2023-03-23T04:43:27;12.50;99.90
28524;DHT22;15734;50.904;6.922;2023-03-23T04:45:56;12.50;99.90
28524;DHT22;15734;50.904;6.922;2023-03-23T04:48:26;12.40;99.90
28524;DHT22;15734;50.904;6.922;2023-03-23T04:50:52;12.40;99.90
28524;DHT22;15734;50.904;6.922;2023-03-23T04:53:17;12.40;99.90
28524;DHT22;15734;50.904;6.922;2023-03-23T04:55:43;12.40;99.90
28524;DHT22;15734;50.904;6.922;2023-03-23T04:58:08;12.50;99.90
28524;DHT22;15734;50.904;6.922;2023-03-23T05:00:34;12.50;99.90
28524;DHT22;15734;50.904;6.922;2023-03-23T05:03:00;12.50;99.90
28524;DHT22;15734;50.904;6.922;2023-03-23T05:05:26;12.50;99.90
28524;DHT22;15734;50.904;6.922;2023-03-23T05:07:52;12.40;99.90
28524;DHT22;15734;50.904;6.922;2023-03-23T05:10:18;12.40;99.90
28524;DHT22;15734;50.904;6.922;2023-03-23T05:12:44;12.40;99.90
28524;DHT22;15734;50.904;6.922;2023-03-23T05:15:10;12.40;99.90
28524;DHT22;15734;50.904;6.922;2023-03-23T05:17:36;12.40;99.90
28524;DHT22;15734;50.904;6.922;2023-03-23T05:20:02;12.40;99.90
28524;DHT22;15734;50.904;6.922;2023-03-23T05:22:35;12.40;99.90
28524;DHT22;15734;50.904;6.922;2023-03-23T05:25:01;12.40;99.90
28524;DHT22;15734;50.904;6.922;2023-03-23T05:27:30;12.40;99.90
28524;DHT22;15734;50.904;6.922;2023-03-23T05:29:58;12.40;99.90
28524;DHT22;15734;50.904;6.922;2023-03-23T05:32:24;12.40;99.90
28524;DHT22;15734;50.904;6.922;2023-03-23T05:34:57;12.40;99.90
28524;DHT22;15734;50.904;6.922;2023-03-23T05:37:22;12.40;99.90
28524;DHT22;15734;50.904;6.922;2023-03-23T05:39:48;12.40;99.90
28524;DHT22;15734;50.904;6.922;2023-03-23T05:42:14;12.40;99.90
28524;DHT22;15734;50.904;6.922;2023-03-23T05:44:39;12.40;99.90
28524;DHT22;15734;50.904;6.922;2023-03-23T05:47:05;12.40;99.90
28524;DHT22;15734;50.904;6.922;2023-03-23T05:49:30;12.30;99.90
28524;DHT22;15734;50.904;6.922;2023-03-23T05:51:56;12.30;99.90
28524;DHT22;15734;50.904;6.922;2023-03-23T05:54:21;12.30;99.90
28524;DHT22;15734;50.904;6.922;2023-03-23T05:56:47;12.30;99.90
28524;DHT22;15734;50.904;6.922;2023-03-23T05:59:14;12.20;99.90
28524;DHT22;15734;50.904;6.922;2023-03-23T06:01:39;12.20;99.90
28524;DHT22;15734;50.904;6.922;2023-03-23T06:04:05;12.30;99.90
28524;DHT22;15734;50.904;6.922;2023-03-23T06:06:31;12.30;99.90
28524;DHT22;15734;50.904;6.922;2023-03-23T06:08:57;12.30;99.90
28524;DHT22;15734;50.904;6.922;2023-03-23T06:11:24;12.30;99.90
28524;DHT22;15734;50.904;6.922;2023-03-23T06:13:50;12.40;99.90
28524;DHT22;15734;50.904;6.922;2023-03-23T06:16:15;12.50;99.90
28524;DHT22;15734;50.904;6.922;2023-03-23T06:18:41;12.50;99.90
28524;DHT22;15734;50.904;6.922;2023-03-23T06:21:07;12.60;99.90
28524;DHT22;15734;50.904;6.922;2023-03-23T06:23:33;12.60;99.90
28524;DHT22;15734;50.904;6.922;2023-03-23T06:26:00;12.70;99.90
28524;DHT22;15734;50.904;6.922;2023-03-23T06:28:25;12.80;99.90
28524;DHT22;15734;50.904;6.922;2023-03-23T06:30:52;12.80;99.90
28524;DHT22;15734;50.904;6.922;2023-03-23T06:33:17;12.80;99.90
28524;DHT22;15734;50.904;6.922;2023-03-23T06:35:43;12.80;99.90
28524;DHT22;15734;50.904;6.922;2023-03-23T06:38:08;12.90;99.90
28524;DHT22;15734;50.904;6.922;2023-03-23T06:40:34;12.90;99.90
28524;DHT22;15734;50.904;6.922;2023-03-23T06:43:01;12.90;99.90
28524;DHT22;15734;50.904;6.922;2023-03-23T06:45:26;13.00;99.90
28524;DHT22;15734;50.904;6.922;2023-03-23T06:47:52;13.00;99.90
28524;DHT22;15734;50.904;6.922;2023-03-23T06:50:17;13.00;99.90
28524;DHT22;15734;50.904;6.922;2023-03-23T06:52:46;13.00;99.90
28524;DHT22;15734;50.904;6.922;2023-03-23T06:55:13;13.10;99.90
28524;DHT22;15734;50.904;6.922;2023-03-23T06:57:38;13.10;99.90
28524;DHT22;15734;50.904;6.922;2023-03-23T07:00:04;13.10;99.90
28524;DHT22;15734;50.904;6.922;2023-03-23T07:02:41;13.10;99.90
28524;DHT22;15734;50.904;6.922;2023-03-23T07:05:08;13.20;99.90
28524;DHT22;15734;50.904;6.922;2023-03-23T07:07:35;13.20;99.90
28524;DHT22;15734;50.904;6.922;2023-03-23T07:10:00;13.20;99.90
28524;DHT22;15734;50.904;6.922;2023-03-23T07:12:26;13.20;99.90
28524;DHT22;15734;50.904;6.922;2023-03-23T07:14:52;13.20;99.90
28524;DHT22;15734;50.904;6.922;2023-03-23T07:17:17;13.20;99.90
28524;DHT22;15734;50.904;6.922;2023-03-23T07:19:43;13.30;99.90
28524;DHT22;15734;50.904;6.922;2023-03-23T07:22:09;13.30;99.90
28524;DHT22;15734;50.904;6.922;2023-03-23T07:24:34;13.30;99.90
28524;DHT22;15734;50.904;6.922;2023-03-23T07:27:00;13.40;99.90
28524;DHT22;15734;50.904;6.922;2023-03-23T07:29:26;13.40;99.90
28524;DHT22;15734;50.904;6.922;2023-03-23T07:31:52;13.40;99.90
28524;DHT22;15734;50.904;6.922;2023-03-23T07:34:18;13.50;99.90
28524;DHT22;15734;50.904;6.922;2023-03-23T07:36:44;13.50;99.90
28524;DHT22;15734;50.904;6.922;2023-03-23T07:39:10;13.50;99.90
28524;DHT22;15734;50.904;6.922;2023-03-23T07:41:35;13.50;99.90
28524;DHT22;15734;50.904;6.922;2023-03-23T07:44:01;13.50;99.90
28524;DHT22;15734;50.904;6.922;2023-03-23T07:46:26;13.60;99.90
28524;DHT22;15734;50.904;6.922;2023-03-23T07:48:52;13.60;99.90
28524;DHT22;15734;50.904;6.922;2023-03-23T07:51:17;13.60;99.90
28524;DHT22;15734;50.904;6.922;2023-03-23T07:53:43;13.70;99.90
28524;DHT22;15734;50.904;6.922;2023-03-23T07:56:12;13.70;99.90
28524;DHT22;15734;50.904;6.922;2023-03-23T07:58:40;13.70;99.90
28524;DHT22;15734;50.904;6.922;2023-03-23T08:01:06;13.70;99.90
28524;DHT22;15734;50.904;6.922;2023-03-23T08:03:32;13.80;99.90
28524;DHT22;15734;50.904;6.922;2023-03-23T08:05:58;13.80;99.90
28524;DHT22;15734;50.904;6.922;2023-03-23T08:08:24;13.90;99.90
28524;DHT22;15734;50.904;6.922;2023-03-23T08:10:50;13.90;99.90
28524;DHT22;15734;50.904;6.922;2023-03-23T08:13:15;13.90;99.90
28524;DHT22;15734;50.904;6.922;2023-03-23T08:15:41;14.00;99.90
28524;DHT22;15734;50.904;6.922;2023-03-23T08:18:06;14.00;99.90
28524;DHT22;15734;50.904;6.922;2023-03-23T08:20:32;14.00;99.90
28524;DHT22;15734;50.904;6.922;2023-03-23T08:22:58;14.00;99.90
28524;DHT22;15734;50.904;6.922;2023-03-23T08:25:23;14.00;99.90
28524;DHT22;15734;50.904;6.922;2023-03-23T08:27:51;14.10;99.90
28524;DHT22;15734;50.904;6.922;2023-03-23T08:30:18;14.10;99.90
28524;DHT22;15734;50.904;6.922;2023-03-23T08:32:44;14.20;99.90
28524;DHT22;15734;50.904;6.922;2023-03-23T08:35:10;14.20;99.90
28524;DHT22;15734;50.904;6.922;2023-03-23T08:37:36;14.20;99.90
28524;DHT22;15734;50.904;6.922;2023-03-23T08:40:03;14.30;99.90
28524;DHT22;15734;50.904;6.922;2023-03-23T08:42:36;14.30;99.90
28524;DHT22;15734;50.904;6.922;2023-03-23T08:45:03;14.30;99.90
28524;DHT22;15734;50.904;6.922;2023-03-23T08:47:29;14.40;99.90
28524;DHT22;15734;50.904;6.922;2023-03-23T08:49:54;14.50;99.90
28524;DHT22;15734;50.904;6.922;2023-03-23T08:52:20;14.50;99.90
28524;DHT22;15734;50.904;6.922;2023-03-23T08:54:46;14.60;99.90
28524;DHT22;15734;50.904;6.922;2023-03-23T08:57:13;14.50;99.90
28524;DHT22;15734;50.904;6.922;2023-03-23T08:59:40;14.60;99.90
28524;DHT22;15734;50.904;6.922;2023-03-23T09:02:05;14.60;99.90
28524;DHT22;15734;50.904;6.922;2023-03-23T09:04:31;14.60;99.90
28524;DHT22;15734;50.904;6.922;2023-03-23T09:06:57;14.60;99.90
28524;DHT22;15734;50.904;6.922;2023-03-23T09:09:23;14.70;99.90
28524;DHT22;15734;50.904;6.922;2023-03-23T09:11:48;14.80;99.90
28524;DHT22;15734;50.904;6.922;2023-03-23T09:14:14;14.90;99.90
28524;DHT22;15734;50.904;6.922;2023-03-23T09:16:40;15.00;99.90
28524;DHT22;15734;50.904;6.922;2023-03-23T09:19:05;15.00;99.90
28524;DHT22;15734;50.904;6.922;2023-03-23T09:21:34;15.10;99.90
28524;DHT22;15734;50.904;6.922;2023-03-23T09:23:59;15.20;99.90
28524;DHT22;15734;50.904;6.922;2023-03-23T09:26:27;15.30;99.90
28524;DHT22;15734;50.904;6.922;2023-03-23T09:28:52;15.40;99.90
28524;DHT22;15734;50.904;6.922;2023-03-23T09:31:18;15.30;99.90
28524;DHT22;15734;50.904;6.922;2023-03-23T09:33:47;15.30;99.90
28524;DHT22;15734;50.904;6.922;2023-03-23T09:36:16;15.30;99.90
28524;DHT22;15734;50.904;6.922;2023-03-23T09:38:43;15.30;99.90
28524;DHT22;15734;50.904;6.922;2023-03-23T09:49:23;15.40;99.90
28524;DHT22;15734;50.904;6.922;2023-03-23T09:51:51;15.40;99.90
28524;DHT22;15734;50.904;6.922;2023-03-23T09:54:19;15.20;99.90
28524;DHT22;15734;50.904;6.922;2023-03-23T09:56:46;15.20;99.90
28524;DHT22;15734;50.904;6.922;2023-03-23T09:59:24;15.10;99.90
28524;DHT22;15734;50.904;6.922;2023-03-23T10:01:54;15.20;99.90
28524;DHT22;15734;50.904;6.922;2023-03-23T10:06:53;15.20;99.90
28524;DHT22;15734;50.904;6.922;2023-03-23T10:09:21;15.10;99.90
28524;DHT22;15734;50.904;6.922;2023-03-23T10:11:56;15.20;99.90
28524;DHT22;15734;50.904;6.922;2023-03-23T10:14:26;15.30;99.90
28524;DHT22;15734;50.904;6.922;2023-03-23T10:19:47;15.40;99.90
28524;DHT22;15734;50.904;6.922;2023-03-23T10:22:16;15.40;99.90
28524;DHT22;15734;50.904;6.922;2023-03-23T10:24:45;15.50;99.90
28524;DHT22;15734;50.904;6.922;2023-03-23T10:27:17;15.40;99.90
28524;DHT22;15734;50.904;6.922;2023-03-23T10:29:52;15.40;99.90
28524;DHT22;15734;50.904;6.922;2023-03-23T10:32:22;15.30;99.90
28524;DHT22;15734;50.904;6.922;2023-03-23T10:39:51;14.90;99.90
28524;DHT22;15734;50.904;6.922;2023-03-23T10:42:27;14.80;99.90
28524;DHT22;15734;50.904;6.922;2023-03-23T10:44:54;14.80;99.90
28524;DHT22;15734;50.904;6.922;2023-03-23T10:47:21;14.80;99.90
28524;DHT22;15734;50.904;6.922;2023-03-23T10:49:51;14.90;99.90
28524;DHT22;15734;50.904;6.922;2023-03-23T10:57:29;14.90;99.90
28524;DHT22;15734;50.904;6.922;2023-03-23T10:59:59;15.00;99.90
28524;DHT22;15734;50.904;6.922;2023-03-23T11:02:26;15.10;99.90
28524;DHT22;15734;50.904;6.922;2023-03-23T11:04:59;15.30;99.90
28524;DHT22;15734;50.904;6.922;2023-03-23T11:07:28;15.40;99.90
28524;DHT22;15734;50.904;6.922;2023-03-23T11:09:55;15.30;99.90
28524;DHT22;15734;50.904;6.922;2023-03-23T11:12:21;15.40;99.90
28524;DHT22;15734;50.904;6.922;2023-03-23T11:14:48;15.40;99.90
28524;DHT22;15734;50.904;6.922;2023-03-23T11:17:24;15.50;99.90
28524;DHT22;15734;50.904;6.922;2023-03-23T11:19:50;15.60;99.90
28524;DHT22;15734;50.904;6.922;2023-03-23T11:22:17;15.60;99.90
28524;DHT22;15734;50.904;6.922;2023-03-23T11:24:44;15.60;99.90
28524;DHT22;15734;50.904;6.922;2023-03-23T11:27:10;15.50;99.90
28524;DHT22;15734;50.904;6.922;2023-03-23T11:29:47;15.50;99.90
28524;DHT22;15734;50.904;6.922;2023-03-23T11:32:14;15.50;99.90
28524;DHT22;15734;50.904;6.922;2023-03-23T11:34:41;15.40;99.90
28524;DHT22;15734;50.904;6.922;2023-03-23T11:42:20;15.50;99.90
28524;DHT22;15734;50.904;6.922;2023-03-23T11:44:46;15.40;99.90
28524;DHT22;15734;50.904;6.922;2023-03-23T11:47:28;15.30;99.90
28524;DHT22;15734;50.904;6.922;2023-03-23T11:52:26;15.30;99.90
28524;DHT22;15734;50.904;6.922;2023-03-23T11:55:03;15.20;99.90
28524;DHT22;15734;50.904;6.922;2023-03-23T11:57:32;15.10;99.90
28524;DHT22;15734;50.904;6.922;2023-03-23T11:59:58;15.20;99.90
28524;DHT22;15734;50.904;6.922;2023-03-23T12:02:36;15.30;99.90
28524;DHT22;15734;50.904;6.922;2023-03-23T12:13:11;15.40;99.90
28524;DHT22;15734;50.904;6.922;2023-03-23T12:31:47;16.10;99.90
28524;DHT22;15734;50.904;6.922;2023-03-23T12:47:12;15.80;99.90
28524;DHT22;15734;50.904;6.922;2023-03-23T12:49:50;15.80;99.90
28524;DHT22;15734;50.904;6.922;2023-03-23T12:57:12;16.00;99.90
28524;DHT22;15734;50.904;6.922;2023-03-23T13:02:22;16.10;99.90
28524;DHT22;15734;50.904;6.922;2023-03-23T13:07:37;16.40;99.90
28524;DHT22;15734;50.904;6.922;2023-03-23T13:10:21;16.50;99.90
28524;DHT22;15734;50.904;6.922;2023-03-23T13:12:47;16.50;99.90
28524;DHT22;15734;50.904;6.922;2023-03-23T13:15:18;16.70;99.90
28524;DHT22;15734;50.904;6.922;2023-03-23T13:17:48;16.80;99.90
28524;DHT22;15734;50.904;6.922;2023-03-23T13:23:20;16.70;99.90
28524;DHT22;15734;50.904;6.922;2023-03-23T13:25:48;16.50;99.90
28524;DHT22;15734;50.904;6.922;2023-03-23T13:28:15;16.30;99.90
28524;DHT22;15734;50.904;6.922;2023-03-23T13:30:52;16.20;99.90
28524;DHT22;15734;50.904;6.922;2023-03-23T13:33:18;16.20;99.90
28524;DHT22;15734;50.904;6.922;2023-03-23T13:35:43;16.10;99.90
28524;DHT22;15734;50.904;6.922;2023-03-23T13:38:23;16.00;99.90
28524;DHT22;15734;50.904;6.922;2023-03-23T13:40:50;16.00;99.90
28524;DHT22;15734;50.904;6.922;2023-03-23T13:43:25;15.90;99.90
28524;DHT22;15734;50.904;6.922;2023-03-23T13:45:51;15.80;99.90
28524;DHT22;15734;50.904;6.922;2023-03-23T13:53:14;16.70;99.90
28524;DHT22;15734;50.904;6.922;2023-03-23T13:55:41;17.40;99.90
28524;DHT22;15734;50.904;6.922;2023-03-23T14:08:12;16.70;99.90
28524;DHT22;15734;50.904;6.922;2023-03-23T14:10:40;16.80;99.90
28524;DHT22;15734;50.904;6.922;2023-03-23T14:13:10;16.80;99.90
28524;DHT22;15734;50.904;6.922;2023-03-23T14:15:41;16.70;99.90
28524;DHT22;15734;50.904;6.922;2023-03-23T14:18:11;16.80;99.90
28524;DHT22;15734;50.904;6.922;2023-03-23T14:20:38;16.90;99.90
28524;DHT22;15734;50.904;6.922;2023-03-23T14:23:05;16.80;99.90
28524;DHT22;15734;50.904;6.922;2023-03-23T14:25:30;16.70;99.90
28524;DHT22;15734;50.904;6.922;2023-03-23T14:27:57;16.60;99.90
28524;DHT22;15734;50.904;6.922;2023-03-23T14:30:24;16.50;99.90
28524;DHT22;15734;50.904;6.922;2023-03-23T14:32:51;16.40;99.90
28524;DHT22;15734;50.904;6.922;2023-03-23T14:35:25;16.30;99.90
28524;DHT22;15734;50.904;6.922;2023-03-23T14:37:51;16.30;99.90
28524;DHT22;15734;50.904;6.922;2023-03-23T14:40:17;16.20;99.90
28524;DHT22;15734;50.904;6.922;2023-03-23T14:42:43;16.20;99.90
28524;DHT22;15734;50.904;6.922;2023-03-23T14:45:16;16.10;99.90
28524;DHT22;15734;50.904;6.922;2023-03-23T14:47:43;16.10;99.90
28524;DHT22;15734;50.904;6.922;2023-03-23T14:52:51;16.00;99.90
28524;DHT22;15734;50.904;6.922;2023-03-23T14:55:18;16.00;99.90
28524;DHT22;15734;50.904;6.922;2023-03-23T14:57:44;16.10;99.90
28524;DHT22;15734;50.904;6.922;2023-03-23T15:02:40;16.40;99.90
28524;DHT22;15734;50.904;6.922;2023-03-23T15:05:10;16.60;99.90
28524;DHT22;15734;50.904;6.922;2023-03-23T15:07:39;16.80;99.90
28524;DHT22;15734;50.904;6.922;2023-03-23T15:10:06;16.90;99.90
28524;DHT22;15734;50.904;6.922;2023-03-23T15:12:31;16.80;99.90
28524;DHT22;15734;50.904;6.922;2023-03-23T15:14:59;16.90;99.90
28524;DHT22;15734;50.904;6.922;2023-03-23T15:17:29;16.80;99.90
28524;DHT22;15734;50.904;6.922;2023-03-23T15:19:55;17.00;99.90
28524;DHT22;15734;50.904;6.922;2023-03-23T15:22:23;17.20;99.90
28524;DHT22;15734;50.904;6.922;2023-03-23T15:24:49;17.20;99.90
28524;DHT22;15734;50.904;6.922;2023-03-23T15:27:16;17.20;99.90
28524;DHT22;15734;50.904;6.922;2023-03-23T15:29:46;17.30;99.90
28524;DHT22;15734;50.904;6.922;2023-03-23T15:32:11;17.30;99.90
28524;DHT22;15734;50.904;6.922;2023-03-23T15:34:37;17.50;99.90
28524;DHT22;15734;50.904;6.922;2023-03-23T15:37:17;17.40;99.90
28524;DHT22;15734;50.904;6.922;2023-03-23T15:39:44;17.20;99.90
28524;DHT22;15734;50.904;6.922;2023-03-23T15:42:19;17.10;99.90
28524;DHT22;15734;50.904;6.922;2023-03-23T15:44:53;17.00;99.90
28524;DHT22;15734;50.904;6.922;2023-03-23T15:47:19;17.00;99.90
28524;DHT22;15734;50.904;6.922;2023-03-23T15:49:46;16.90;99.90
28524;DHT22;15734;50.904;6.922;2023-03-23T15:52:23;16.90;99.90
28524;DHT22;15734;50.904;6.922;2023-03-23T15:54:48;16.90;99.90
28524;DHT22;15734;50.904;6.922;2023-03-23T15:57:14;16.90;99.90
28524;DHT22;15734;50.904;6.922;2023-03-23T15:59:39;16.90;99.90
28524;DHT22;15734;50.904;6.922;2023-03-23T16:02:05;16.90;99.90
28524;DHT22;15734;50.904;6.922;2023-03-23T16:04:30;16.90;99.90
28524;DHT22;15734;50.904;6.922;2023-03-23T16:06:57;17.00;99.90
28524;DHT22;15734;50.904;6.922;2023-03-23T16:09:23;17.00;99.90
28524;DHT22;15734;50.904;6.922;2023-03-23T16:11:48;16.90;99.90
28524;DHT22;15734;50.904;6.922;2023-03-23T16:14:16;16.80;99.90
28524;DHT22;15734;50.904;6.922;2023-03-23T16:16:43;16.80;99.90
28524;DHT22;15734;50.904;6.922;2023-03-23T16:19:12;16.90;99.90
28524;DHT22;15734;50.904;6.922;2023-03-23T16:21:38;16.60;99.90
28524;DHT22;15734;50.904;6.922;2023-03-23T16:24:03;16.60;99.90
28524;DHT22;15734;50.904;6.922;2023-03-23T16:26:29;16.60;99.90
28524;DHT22;15734;50.904;6.922;2023-03-23T16:28:55;16.60;99.90
28524;DHT22;15734;50.904;6.922;2023-03-23T16:31:22;16.70;99.90
28524;DHT22;15734;50.904;6.922;2023-03-23T16:33:48;16.60;99.90
28524;DHT22;15734;50.904;6.922;2023-03-23T16:36:13;16.50;99.90
28524;DHT22;15734;50.904;6.922;2023-03-23T16:38:40;16.30;99.90
28524;DHT22;15734;50.904;6.922;2023-03-23T16:41:07;16.20;99.90
28524;DHT22;15734;50.904;6.922;2023-03-23T16:43:33;16.20;99.90
28524;DHT22;15734;50.904;6.922;2023-03-23T16:45:58;16.10;99.90
28524;DHT22;15734;50.904;6.922;2023-03-23T16:48:24;16.10;99.90
28524;DHT22;15734;50.904;6.922;2023-03-23T16:50:51;16.00;99.90
28524;DHT22;15734;50.904;6.922;2023-03-23T16:53:16;16.00;99.90
28524;DHT22;15734;50.904;6.922;2023-03-23T16:55:43;15.90;99.90
28524;DHT22;15734;50.904;6.922;2023-03-23T16:58:12;15.90;99.90
28524;DHT22;15734;50.904;6.922;2023-03-23T17:00:38;15.90;99.90
28524;DHT22;15734;50.904;6.922;2023-03-23T17:03:04;15.90;99.90
28524;DHT22;15734;50.904;6.922;2023-03-23T17:05:30;15.80;99.90
28524;DHT22;15734;50.904;6.922;2023-03-23T17:07:56;15.70;99.90
28524;DHT22;15734;50.904;6.922;2023-03-23T17:10:22;15.70;99.90
28524;DHT22;15734;50.904;6.922;2023-03-23T17:12:48;15.70;99.90
28524;DHT22;15734;50.904;6.922;2023-03-23T17:15:13;15.60;99.90
28524;DHT22;15734;50.904;6.922;2023-03-23T17:17:39;15.60;99.90
28524;DHT22;15734;50.904;6.922;2023-03-23T17:20:05;15.50;99.90
28524;DHT22;15734;50.904;6.922;2023-03-23T17:22:30;15.40;99.90
28524;DHT22;15734;50.904;6.922;2023-03-23T17:24:56;15.40;99.90
28524;DHT22;15734;50.904;6.922;2023-03-23T17:27:22;15.40;99.90
28524;DHT22;15734;50.904;6.922;2023-03-23T17:29:49;15.40;99.90
28524;DHT22;15734;50.904;6.922;2023-03-23T17:32:15;15.30;99.90
28524;DHT22;15734;50.904;6.922;2023-03-23T17:34:40;15.30;99.90
28524;DHT22;15734;50.904;6.922;2023-03-23T17:37:06;15.20;99.90